Galva, Iowa
Current Conditions -  °F | °C
As of 8:55 AM on Saturday 20 Dec 2014 (Local Time) from KSLB Reporting Station
Haze Haze  
Wind Chill: 20°   Ceiling: 300
Heat Index: 28°   Visibility: 1mi
Dew Point: 28°   Wind: 9mph
Humidity: 100%   Direction: 160°SSE
Pressure: 30.11"   Gusts: NA
Location:  42.51°N, 95.42°W
Report Text: KSLB 201455Z AUTO 16008KT 1SM BR OVC003 M02/M02 A3011 RMK AO2
Loading
Personal Weather Stations






























Interactive Weather Map New forecast layout! Learn more

10-Day Weather Forecast

Advertisements
Track Severe Weather on mobile